sensor_id;sensor_type;location;lat;lon;timestamp;temperature;humidity
30467;DHT22;17258;52.560;13.046;2023-03-08T00:08:05;6.30;60.60
30467;DHT22;17258;52.560;13.046;2023-03-08T00:18:05;6.10;60.60
30467;DHT22;17258;52.560;13.046;2023-03-08T00:28:06;6.10;60.80
30467;DHT22;17258;52.560;13.046;2023-03-08T00:38:07;6.00;60.70
30467;DHT22;17258;52.560;13.046;2023-03-08T00:48:10;5.90;60.80
30467;DHT22;17258;52.560;13.046;2023-03-08T00:58:11;5.90;60.90
30467;DHT22;17258;52.560;13.046;2023-03-08T01:08:13;5.80;60.90
30467;DHT22;17258;52.560;13.046;2023-03-08T01:18:14;5.80;61.00
30467;DHT22;17258;52.560;13.046;2023-03-08T01:28:17;5.70;60.90
30467;DHT22;17258;52.560;13.046;2023-03-08T01:38:17;5.60;61.00
30467;DHT22;17258;52.560;13.046;2023-03-08T01:48:19;5.60;61.00
30467;DHT22;17258;52.560;13.046;2023-03-08T01:58:24;5.50;61.00
30467;DHT22;17258;52.560;13.046;2023-03-08T02:08:25;5.40;61.10
30467;DHT22;17258;52.560;13.046;2023-03-08T02:18:26;5.40;61.10
30467;DHT22;17258;52.560;13.046;2023-03-08T02:28:27;5.30;61.20
30467;DHT22;17258;52.560;13.046;2023-03-08T02:38:28;5.30;61.30
30467;DHT22;17258;52.560;13.046;2023-03-08T02:48:29;5.30;61.30
30467;DHT22;17258;52.560;13.046;2023-03-08T02:58:30;5.20;61.30
30467;DHT22;17258;52.560;13.046;2023-03-08T03:08:30;5.20;61.30
30467;DHT22;17258;52.560;13.046;2023-03-08T03:18:31;5.20;61.50
30467;DHT22;17258;52.560;13.046;2023-03-08T03:28:32;5.20;61.50
30467;DHT22;17258;52.560;13.046;2023-03-08T03:38:32;5.20;61.70
30467;DHT22;17258;52.560;13.046;2023-03-08T03:48:34;5.20;61.50
30467;DHT22;17258;52.560;13.046;2023-03-08T03:58:35;5.10;61.50
30467;DHT22;17258;52.560;13.046;2023-03-08T04:08:36;5.10;61.40
30467;DHT22;17258;52.560;13.046;2023-03-08T04:18:41;5.10;61.40
30467;DHT22;17258;52.560;13.046;2023-03-08T04:28:43;5.00;61.30
30467;DHT22;17258;52.560;13.046;2023-03-08T04:38:44;4.90;61.30
30467;DHT22;17258;52.560;13.046;2023-03-08T04:48:45;4.90;61.30
30467;DHT22;17258;52.560;13.046;2023-03-08T04:58:47;4.90;61.20
30467;DHT22;17258;52.560;13.046;2023-03-08T05:08:47;4.80;61.20
30467;DHT22;17258;52.560;13.046;2023-03-08T05:18:48;4.70;61.10
30467;DHT22;17258;52.560;13.046;2023-03-08T05:28:49;4.60;61.10
30467;DHT22;17258;52.560;13.046;2023-03-08T05:38:53;4.50;61.00
30467;DHT22;17258;52.560;13.046;2023-03-08T05:48:54;4.30;60.90
30467;DHT22;17258;52.560;13.046;2023-03-08T05:58:55;4.30;61.00
30467;DHT22;17258;52.560;13.046;2023-03-08T06:08:55;4.20;61.00
30467;DHT22;17258;52.560;13.046;2023-03-08T06:18:56;4.10;61.00
30467;DHT22;17258;52.560;13.046;2023-03-08T06:28:57;4.00;61.10
30467;DHT22;17258;52.560;13.046;2023-03-08T06:38:57;4.00;61.20
30467;DHT22;17258;52.560;13.046;2023-03-08T06:48:59;4.00;61.40
30467;DHT22;17258;52.560;13.046;2023-03-08T06:59:00;4.00;61.70
30467;DHT22;17258;52.560;13.046;2023-03-08T07:09:01;4.10;61.80
30467;DHT22;17258;52.560;13.046;2023-03-08T07:19:02;4.20;62.10
30467;DHT22;17258;52.560;13.046;2023-03-08T07:29:02;4.40;62.30
30467;DHT22;17258;52.560;13.046;2023-03-08T07:39:03;4.60;62.50
30467;DHT22;17258;52.560;13.046;2023-03-08T07:49:04;4.80;62.60
30467;DHT22;17258;52.560;13.046;2023-03-08T07:59:09;5.10;62.80
30467;DHT22;17258;52.560;13.046;2023-03-08T08:09:12;5.30;62.70
30467;DHT22;17258;52.560;13.046;2023-03-08T08:19:14;5.60;62.90
30467;DHT22;17258;52.560;13.046;2023-03-08T08:29:14;5.80;62.90
30467;DHT22;17258;52.560;13.046;2023-03-08T08:39:15;6.10;63.00
30467;DHT22;17258;52.560;13.046;2023-03-08T08:49:16;6.40;62.90
30467;DHT22;17258;52.560;13.046;2023-03-08T08:59:16;6.60;63.50
30467;DHT22;17258;52.560;13.046;2023-03-08T09:09:17;6.90;62.70
30467;DHT22;17258;52.560;13.046;2023-03-08T09:19:18;7.10;62.70
30467;DHT22;17258;52.560;13.046;2023-03-08T09:29:18;7.40;62.50
30467;DHT22;17258;52.560;13.046;2023-03-08T09:39:19;7.60;62.20
30467;DHT22;17258;52.560;13.046;2023-03-08T09:49:31;7.80;61.90
30467;DHT22;17258;52.560;13.046;2023-03-08T09:59:54;8.00;61.30
30467;DHT22;17258;52.560;13.046;2023-03-08T10:10:11;8.10;61.60
30467;DHT22;17258;52.560;13.046;2023-03-08T10:20:22;8.50;62.10
30467;DHT22;17258;52.560;13.046;2023-03-08T10:30:34;8.80;61.70
30467;DHT22;17258;52.560;13.046;2023-03-08T10:41:17;9.00;61.20
30467;DHT22;17258;52.560;13.046;2023-03-08T10:51:22;9.20;60.50
30467;DHT22;17258;52.560;13.046;2023-03-08T11:01:30;9.50;61.80
30467;DHT22;17258;52.560;13.046;2023-03-08T11:11:41;9.70;60.80
30467;DHT22;17258;52.560;13.046;2023-03-08T11:32:30;10.10;59.80
30467;DHT22;17258;52.560;13.046;2023-03-08T11:53:08;10.20;59.00
30467;DHT22;17258;52.560;13.046;2023-03-08T12:03:17;10.30;60.40
30467;DHT22;17258;52.560;13.046;2023-03-08T12:13:37;10.50;59.60
30467;DHT22;17258;52.560;13.046;2023-03-08T12:24:01;10.60;59.20
30467;DHT22;17258;52.560;13.046;2023-03-08T12:34:23;10.70;59.10
30467;DHT22;17258;52.560;13.046;2023-03-08T12:44:42;10.90;59.10
30467;DHT22;17258;52.560;13.046;2023-03-08T12:54:55;11.00;59.10
30467;DHT22;17258;52.560;13.046;2023-03-08T13:05:15;11.00;58.60
30467;DHT22;17258;52.560;13.046;2023-03-08T13:15:30;11.00;58.70
30467;DHT22;17258;52.560;13.046;2023-03-08T13:25:45;11.00;58.60
30467;DHT22;17258;52.560;13.046;2023-03-08T13:46:11;10.90;58.30
30467;DHT22;17258;52.560;13.046;2023-03-08T13:56:22;10.80;58.40
30467;DHT22;17258;52.560;13.046;2023-03-08T14:06:28;10.80;58.50
30467;DHT22;17258;52.560;13.046;2023-03-08T14:16:35;10.80;58.60
30467;DHT22;17258;52.560;13.046;2023-03-08T14:26:38;10.70;58.70
30467;DHT22;17258;52.560;13.046;2023-03-08T14:36:55;10.60;58.60
30467;DHT22;17258;52.560;13.046;2023-03-08T14:47:07;10.50;58.50
30467;DHT22;17258;52.560;13.046;2023-03-08T14:57:18;10.40;58.80
30467;DHT22;17258;52.560;13.046;2023-03-08T15:07:22;10.30;58.90
30467;DHT22;17258;52.560;13.046;2023-03-08T15:17:23;10.20;59.00
30467;DHT22;17258;52.560;13.046;2023-03-08T15:27:24;10.10;59.00
30467;DHT22;17258;52.560;13.046;2023-03-08T15:37:24;10.00;59.10
30467;DHT22;17258;52.560;13.046;2023-03-08T15:47:25;9.80;59.10
30467;DHT22;17258;52.560;13.046;2023-03-08T15:57:26;9.70;59.20
30467;DHT22;17258;52.560;13.046;2023-03-08T16:07:27;9.60;59.20
30467;DHT22;17258;52.560;13.046;2023-03-08T16:17:29;9.50;59.30
30467;DHT22;17258;52.560;13.046;2023-03-08T16:27:30;9.30;59.30
30467;DHT22;17258;52.560;13.046;2023-03-08T16:37:30;9.20;59.20
30467;DHT22;17258;52.560;13.046;2023-03-08T16:47:31;9.00;59.30
30467;DHT22;17258;52.560;13.046;2023-03-08T16:57:32;8.80;59.30
30467;DHT22;17258;52.560;13.046;2023-03-08T17:07:32;8.60;59.30
30467;DHT22;17258;52.560;13.046;2023-03-08T17:17:33;8.50;59.40
30467;DHT22;17258;52.560;13.046;2023-03-08T17:27:34;8.40;59.50
30467;DHT22;17258;52.560;13.046;2023-03-08T17:37:34;8.20;60.20
30467;DHT22;17258;52.560;13.046;2023-03-08T17:47:41;8.10;59.60
30467;DHT22;17258;52.560;13.046;2023-03-08T17:57:41;8.00;59.70
30467;DHT22;17258;52.560;13.046;2023-03-08T18:07:42;7.90;59.80
30467;DHT22;17258;52.560;13.046;2023-03-08T18:17:44;7.80;59.80
30467;DHT22;17258;52.560;13.046;2023-03-08T18:27:45;7.80;59.90
30467;DHT22;17258;52.560;13.046;2023-03-08T18:37:46;7.70;60.00
30467;DHT22;17258;52.560;13.046;2023-03-08T18:47:50;7.60;60.00
30467;DHT22;17258;52.560;13.046;2023-03-08T18:57:51;7.50;60.10
30467;DHT22;17258;52.560;13.046;2023-03-08T19:07:51;7.50;61.00
30467;DHT22;17258;52.560;13.046;2023-03-08T19:17:56;7.50;60.30
30467;DHT22;17258;52.560;13.046;2023-03-08T19:27:58;7.40;60.40
30467;DHT22;17258;52.560;13.046;2023-03-08T19:37:58;7.40;60.40
30467;DHT22;17258;52.560;13.046;2023-03-08T19:47:59;7.40;60.40
30467;DHT22;17258;52.560;13.046;2023-03-08T19:58:00;7.30;60.40
30467;DHT22;17258;52.560;13.046;2023-03-08T20:08:00;7.20;60.40
30467;DHT22;17258;52.560;13.046;2023-03-08T20:18:01;7.10;60.40
30467;DHT22;17258;52.560;13.046;2023-03-08T20:28:02;7.10;60.50
30467;DHT22;17258;52.560;13.046;2023-03-08T20:38:03;7.10;60.60
30467;DHT22;17258;52.560;13.046;2023-03-08T20:48:03;7.10;60.60
30467;DHT22;17258;52.560;13.046;2023-03-08T20:58:04;7.00;60.60
30467;DHT22;17258;52.560;13.046;2023-03-08T21:08:05;7.00;60.60
30467;DHT22;17258;52.560;13.046;2023-03-08T21:18:06;7.00;60.60
30467;DHT22;17258;52.560;13.046;2023-03-08T21:28:06;7.00;60.70
30467;DHT22;17258;52.560;13.046;2023-03-08T21:38:07;7.00;60.80
30467;DHT22;17258;52.560;13.046;2023-03-08T21:48:08;6.90;60.80
30467;DHT22;17258;52.560;13.046;2023-03-08T21:58:09;6.90;60.80
30467;DHT22;17258;52.560;13.046;2023-03-08T22:08:10;6.90;60.80
30467;DHT22;17258;52.560;13.046;2023-03-08T22:18:10;6.90;60.90
30467;DHT22;17258;52.560;13.046;2023-03-08T22:28:11;6.90;60.90
30467;DHT22;17258;52.560;13.046;2023-03-08T22:38:12;6.80;60.90
30467;DHT22;17258;52.560;13.046;2023-03-08T22:48:13;6.80;60.90
30467;DHT22;17258;52.560;13.046;2023-03-08T22:58:14;6.80;61.00
30467;DHT22;17258;52.560;13.046;2023-03-08T23:08:14;6.80;61.00
30467;DHT22;17258;52.560;13.046;2023-03-08T23:18:15;6.70;61.00
30467;DHT22;17258;52.560;13.046;2023-03-08T23:28:16;6.80;61.20
30467;DHT22;17258;52.560;13.046;2023-03-08T23:38:16;6.80;61.20
30467;DHT22;17258;52.560;13.046;2023-03-08T23:48:17;6.80;61.20
30467;DHT22;17258;52.560;13.046;2023-03-08T23:58:17;6.80;61.30
